createdAt,value
2018-08-03T00:02:16.361Z,18.60
2018-08-03T00:04:44.009Z,18.07
2018-08-03T00:07:11.609Z,18.30
2018-08-03T00:09:39.157Z,17.53
2018-08-03T00:12:06.847Z,18.93
2018-08-03T00:14:34.449Z,17.83
2018-08-03T00:17:01.937Z,19.33
2018-08-03T00:19:29.563Z,17.43
2018-08-03T00:21:57.227Z,17.43
2018-08-03T00:24:24.804Z,16.60
2018-08-03T00:26:52.408Z,19.57
2018-08-03T00:29:19.962Z,21.63
2018-08-03T00:31:47.555Z,20.63
2018-08-03T00:34:15.092Z,20.73
2018-08-03T00:36:42.876Z,19.67
2018-08-03T00:39:11.034Z,19.20
2018-08-03T00:41:38.635Z,20.13
2018-08-03T00:44:06.350Z,19.27
2018-08-03T00:46:33.947Z,18.10
2018-08-03T00:49:01.750Z,18.50
2018-08-03T00:51:29.356Z,19.07
2018-08-03T00:53:57.108Z,18.83
2018-08-03T00:56:24.677Z,19.90
2018-08-03T00:58:52.227Z,18.73
2018-08-03T01:01:20.004Z,17.27
2018-08-03T01:03:47.595Z,18.50
2018-08-03T01:06:15.163Z,17.97
2018-08-03T01:08:42.773Z,18.77
2018-08-03T01:11:10.444Z,18.50
2018-08-03T01:13:38.007Z,17.83
2018-08-03T01:16:05.625Z,19.00
2018-08-03T01:18:33.184Z,17.37
2018-08-03T01:21:00.794Z,18.30
2018-08-03T01:23:28.658Z,17.87
2018-08-03T01:25:56.229Z,15.90
2018-08-03T01:28:23.789Z,17.10
2018-08-03T01:30:51.379Z,16.50
2018-08-03T01:33:18.961Z,17.47
2018-08-03T01:35:46.477Z,18.80
2018-08-03T01:38:14.100Z,18.80
2018-08-03T01:40:41.682Z,18.20
2018-08-03T01:43:09.232Z,19.10
2018-08-03T01:45:36.812Z,18.80
2018-08-03T01:48:04.385Z,20.07
2018-08-03T01:50:31.935Z,20.03
2018-08-03T01:52:59.499Z,19.80
2018-08-03T01:55:28.664Z,18.57
2018-08-03T01:57:56.243Z,19.50
2018-08-03T02:00:23.835Z,18.50
2018-08-03T02:02:51.397Z,19.27
2018-08-03T02:05:19.006Z,17.13
2018-08-03T02:07:46.595Z,17.97
2018-08-03T02:10:14.268Z,19.17
2018-08-03T02:12:41.840Z,18.80
2018-08-03T02:15:09.465Z,18.90
2018-08-03T02:17:37.049Z,17.93
2018-08-03T02:20:05.413Z,16.73
2018-08-03T02:22:32.941Z,17.40
2018-08-03T02:25:00.500Z,19.83
2018-08-03T02:27:28.215Z,16.63
2018-08-03T02:29:55.860Z,17.43
2018-08-03T02:32:23.464Z,19.10
2018-08-03T02:34:51.025Z,17.03
2018-08-03T02:37:18.656Z,16.00
2018-08-03T02:39:46.232Z,16.70
2018-08-03T02:42:13.879Z,16.40
2018-08-03T02:44:42.875Z,14.47
2018-08-03T02:47:10.469Z,16.80
2018-08-03T02:49:38.028Z,18.97
2018-08-03T02:52:05.740Z,17.20
2018-08-03T02:54:33.279Z,17.00
2018-08-03T02:57:00.843Z,18.40
2018-08-03T02:59:28.389Z,17.60
2018-08-03T03:01:55.951Z,18.20
2018-08-03T03:04:23.582Z,17.67
2018-08-03T03:06:51.249Z,16.93
2018-08-03T03:09:18.911Z,18.00
2018-08-03T03:11:46.506Z,19.07
2018-08-03T03:14:14.070Z,18.40
2018-08-03T03:16:41.722Z,17.93
2018-08-03T03:19:09.327Z,17.43
2018-08-03T03:21:36.922Z,17.53
2018-08-03T03:24:04.570Z,18.40
2018-08-03T03:26:32.164Z,16.03
2018-08-03T03:28:59.755Z,17.07
2018-08-03T03:31:27.339Z,16.03
2018-08-03T03:33:54.939Z,15.30
2018-08-03T03:36:22.484Z,15.97
2018-08-03T03:38:50.110Z,16.40
2018-08-03T03:41:17.664Z,16.13
2018-08-03T03:43:45.235Z,17.40
2018-08-03T03:46:12.849Z,16.10
2018-08-03T03:48:40.415Z,16.80
2018-08-03T03:51:08.896Z,15.60
2018-08-03T03:53:36.410Z,16.17
2018-08-03T03:56:03.981Z,14.40
2018-08-03T03:58:31.606Z,15.87
2018-08-03T04:00:59.227Z,15.63
2018-08-03T04:03:27.623Z,15.43
2018-08-03T04:05:55.385Z,14.10
2018-08-03T04:08:22.989Z,16.73
2018-08-03T04:10:50.579Z,16.43
2018-08-03T04:13:18.105Z,17.63
2018-08-03T04:15:45.683Z,20.07
2018-08-03T04:18:16.893Z,19.63
2018-08-03T04:20:44.473Z,17.03
2018-08-03T04:23:12.059Z,14.57
2018-08-03T04:25:39.657Z,15.60
2018-08-03T04:28:07.223Z,16.80
2018-08-03T04:30:34.779Z,15.90
2018-08-03T04:33:02.413Z,16.10
2018-08-03T04:35:30.043Z,16.07
2018-08-03T04:37:57.618Z,16.13
2018-08-03T04:40:25.228Z,17.50
2018-08-03T04:42:52.774Z,16.47
2018-08-03T04:45:20.366Z,17.53
2018-08-03T04:47:47.975Z,17.93
2018-08-03T04:50:15.556Z,17.70
2018-08-03T04:52:43.888Z,18.17
2018-08-03T04:55:11.499Z,19.43
2018-08-03T04:57:39.078Z,20.10
2018-08-03T05:00:06.668Z,19.63
2018-08-03T05:02:34.235Z,20.60
2018-08-03T05:05:01.851Z,18.50
2018-08-03T05:07:29.433Z,17.80
2018-08-03T05:09:57.013Z,20.17
2018-08-03T05:12:24.618Z,18.77
2018-08-03T05:14:52.220Z,20.80
2018-08-03T05:17:19.805Z,19.50
2018-08-03T05:19:47.382Z,19.97
2018-08-03T05:22:15.017Z,21.47
2018-08-03T05:24:42.638Z,22.40
2018-08-03T05:27:10.194Z,21.60
2018-08-03T05:29:37.795Z,22.90
2018-08-03T05:32:05.414Z,23.73
2018-08-03T05:34:32.962Z,21.27
2018-08-03T05:37:00.575Z,20.83
2018-08-03T05:39:28.173Z,20.20
2018-08-03T05:41:55.765Z,22.00
2018-08-03T05:44:23.380Z,21.67
2018-08-03T05:46:50.999Z,23.00
2018-08-03T05:49:18.549Z,25.40
2018-08-03T05:51:46.119Z,21.57
2018-08-03T05:54:13.777Z,23.63
2018-08-03T05:56:41.343Z,25.13
2018-08-03T05:59:08.972Z,26.00
2018-08-03T06:01:36.620Z,23.17
2018-08-03T06:04:04.302Z,22.87
2018-08-03T06:06:31.864Z,23.90
2018-08-03T06:08:59.473Z,23.23
2018-08-03T06:11:27.067Z,24.60
2018-08-03T06:13:55.309Z,24.80
2018-08-03T06:16:22.847Z,25.37
2018-08-03T06:18:50.431Z,24.07
2018-08-03T06:21:18.076Z,22.47
2018-08-03T06:23:45.754Z,24.90
2018-08-03T06:26:13.344Z,26.50
2018-08-03T06:28:40.914Z,23.97
2018-08-03T06:31:08.689Z,24.07
2018-08-03T06:33:36.288Z,24.70
2018-08-03T06:36:03.976Z,25.73
2018-08-03T06:38:31.665Z,24.97
2018-08-03T06:40:59.289Z,24.73
2018-08-03T06:43:26.953Z,24.60
2018-08-03T06:45:54.652Z,23.93
2018-08-03T06:48:22.853Z,23.70
2018-08-03T06:50:50.459Z,22.73
2018-08-03T06:53:18.112Z,22.97
2018-08-03T06:55:45.732Z,22.90
2018-08-03T06:58:13.346Z,24.67
2018-08-03T07:00:40.980Z,20.83
2018-08-03T07:03:08.606Z,26.13
2018-08-03T07:05:36.203Z,22.20
2018-08-03T07:08:03.889Z,21.27
2018-08-03T07:10:31.506Z,21.00
2018-08-03T07:12:59.063Z,21.80
2018-08-03T07:15:27.326Z,21.90
2018-08-03T07:17:54.911Z,22.07
2018-08-03T07:20:22.649Z,22.80
2018-08-03T07:22:50.131Z,22.83
2018-08-03T07:25:17.697Z,22.37
2018-08-03T07:27:45.335Z,20.97
2018-08-03T07:30:12.931Z,21.60
2018-08-03T07:32:40.567Z,22.53
2018-08-03T07:35:08.178Z,23.30
2018-08-03T07:37:35.837Z,21.40
2018-08-03T07:40:03.587Z,21.57
2018-08-03T07:42:31.198Z,23.70
2018-08-03T07:44:59.721Z,21.87
2018-08-03T07:47:27.261Z,20.43
2018-08-03T07:49:54.924Z,23.20
2018-08-03T07:52:22.617Z,21.20
2018-08-03T07:54:50.137Z,22.70
2018-08-03T07:57:17.714Z,21.20
2018-08-03T07:59:45.301Z,21.53
2018-08-03T08:02:12.946Z,23.47
2018-08-03T08:04:40.483Z,22.40
2018-08-03T08:07:08.168Z,22.50
2018-08-03T08:09:35.723Z,20.80
2018-08-03T08:12:03.651Z,23.17
2018-08-03T08:14:31.232Z,25.20
2018-08-03T08:16:58.895Z,24.67
2018-08-03T08:19:26.454Z,22.37
2018-08-03T08:21:54.140Z,22.50
2018-08-03T08:24:21.735Z,23.37
2018-08-03T08:26:49.361Z,22.90
2018-08-03T08:29:16.958Z,22.67
2018-08-03T08:31:44.564Z,22.37
2018-08-03T08:34:12.173Z,23.70
2018-08-03T08:36:39.763Z,24.30
2018-08-03T08:39:09.894Z,25.53
2018-08-03T08:41:37.498Z,23.10
2018-08-03T08:44:05.221Z,24.53
2018-08-03T08:46:32.888Z,23.77
2018-08-03T08:49:00.447Z,23.43
2018-08-03T08:51:28.130Z,22.30
2018-08-03T08:53:55.720Z,22.93
2018-08-03T08:56:23.184Z,22.03
2018-08-03T08:58:50.810Z,22.20
2018-08-03T09:01:18.404Z,23.03
2018-08-03T09:03:45.989Z,24.63
2018-08-03T09:06:13.716Z,23.97
2018-08-03T09:08:41.487Z,23.50
2018-08-03T09:11:10.043Z,23.23
2018-08-03T09:13:37.645Z,21.23
2018-08-03T09:16:05.408Z,21.87
2018-08-03T09:18:32.995Z,21.07
2018-08-03T09:21:01.377Z,23.37
2018-08-03T09:23:28.963Z,22.47
2018-08-03T09:25:56.691Z,22.30
2018-08-03T09:28:24.277Z,20.80
2018-08-03T09:30:52.445Z,22.90
2018-08-03T09:33:20.005Z,21.63
2018-08-03T09:35:47.571Z,22.33
2018-08-03T09:38:15.117Z,22.13
2018-08-03T09:40:42.686Z,23.57
2018-08-03T09:43:11.086Z,22.80
2018-08-03T09:45:38.650Z,20.70
2018-08-03T09:48:06.357Z,21.37
2018-08-03T09:50:34.068Z,22.40
2018-08-03T09:53:01.683Z,22.90
2018-08-03T09:55:29.279Z,22.60
2018-08-03T09:57:56.857Z,20.90
2018-08-03T10:00:31.105Z,21.57
2018-08-03T10:02:58.646Z,22.90
2018-08-03T10:05:26.198Z,21.37
2018-08-03T10:07:53.804Z,21.00
2018-08-03T10:10:21.449Z,21.90
2018-08-03T10:12:49.158Z,23.77
2018-08-03T10:15:16.796Z,20.50
2018-08-03T10:17:44.329Z,21.57
2018-08-03T10:20:11.915Z,21.07
2018-08-03T10:22:39.529Z,20.67
2018-08-03T10:25:07.017Z,21.70
2018-08-03T10:27:34.589Z,19.50
2018-08-03T10:30:02.208Z,20.53
2018-08-03T10:32:29.829Z,19.60
2018-08-03T10:34:58.126Z,19.90
2018-08-03T10:37:25.861Z,19.77
2018-08-03T10:39:53.625Z,20.50
2018-08-03T10:42:21.217Z,18.50
2018-08-03T10:44:48.794Z,19.77
2018-08-03T10:47:16.401Z,17.87
2018-08-03T10:49:43.961Z,18.20
2018-08-03T10:52:11.543Z,17.50
2018-08-03T10:54:39.094Z,19.57
2018-08-03T10:57:06.745Z,20.07
2018-08-03T10:59:35.056Z,18.80
2018-08-03T11:02:02.653Z,17.87
2018-08-03T11:04:31.622Z,17.33
2018-08-03T11:06:59.228Z,18.47
2018-08-03T11:09:26.798Z,17.90
2018-08-03T11:11:55.538Z,18.33
2018-08-03T11:14:23.092Z,17.40
2018-08-03T11:16:50.672Z,17.77
2018-08-03T11:19:18.245Z,16.80
2018-08-03T11:21:45.843Z,15.43
2018-08-03T11:24:13.502Z,16.20
2018-08-03T11:26:41.795Z,17.73
2018-08-03T11:29:09.294Z,16.70
2018-08-03T11:31:36.890Z,16.33
2018-08-03T11:34:04.472Z,16.67
2018-08-03T11:36:32.041Z,16.23
2018-08-03T11:38:59.606Z,15.47
2018-08-03T11:41:27.156Z,14.67
2018-08-03T11:43:54.696Z,14.37
2018-08-03T11:46:22.344Z,15.03
2018-08-03T11:48:50.590Z,15.87
2018-08-03T11:51:18.327Z,14.40
2018-08-03T11:53:46.441Z,14.77
2018-08-03T11:56:13.982Z,14.77
2018-08-03T11:58:42.127Z,16.13
2018-08-03T12:01:09.758Z,14.10
2018-08-03T12:03:37.348Z,13.87
2018-08-03T12:06:05.003Z,13.83
2018-08-03T12:08:32.568Z,13.83
2018-08-03T12:11:00.158Z,13.77
2018-08-03T12:13:27.783Z,13.20
2018-08-03T12:15:55.450Z,12.70
2018-08-03T12:18:23.074Z,13.90
2018-08-03T12:20:50.635Z,13.00
2018-08-03T12:23:18.265Z,14.30
2018-08-03T12:25:45.844Z,13.17
2018-08-03T12:28:13.421Z,14.07
2018-08-03T12:30:41.685Z,13.53
2018-08-03T12:33:09.440Z,12.70
2018-08-03T12:35:37.047Z,13.33
2018-08-03T12:38:04.673Z,14.03
2018-08-03T12:40:32.272Z,12.67
2018-08-03T12:42:59.867Z,12.43
2018-08-03T12:45:33.838Z,12.67
2018-08-03T12:47:55.113Z,13.10
2018-08-03T12:50:22.843Z,12.90
2018-08-03T12:52:50.471Z,13.23
2018-08-03T12:55:18.180Z,13.50
2018-08-03T12:57:45.872Z,14.73
2018-08-03T13:00:13.591Z,13.43
2018-08-03T13:02:41.234Z,14.23
2018-08-03T13:05:08.822Z,14.03
2018-08-03T13:07:36.644Z,13.67
2018-08-03T13:10:04.231Z,12.07
2018-08-03T13:12:31.856Z,12.43
2018-08-03T13:14:59.567Z,13.13
2018-08-03T13:17:27.115Z,14.20
2018-08-03T13:19:54.751Z,13.00
2018-08-03T13:22:23.295Z,13.40
2018-08-03T13:24:51.465Z,14.10
2018-08-03T13:27:19.824Z,14.67
2018-08-03T13:29:47.379Z,13.80
2018-08-03T13:32:14.980Z,14.87
2018-08-03T13:34:42.619Z,12.87
2018-08-03T13:37:10.249Z,14.07
2018-08-03T13:39:37.855Z,13.40
2018-08-03T13:42:05.652Z,13.27
2018-08-03T13:44:33.190Z,13.17
2018-08-03T13:47:00.813Z,11.50
2018-08-03T13:49:28.394Z,12.50
2018-08-03T13:51:56.023Z,13.57
2018-08-03T13:54:24.587Z,12.20
2018-08-03T13:56:52.246Z,13.13
2018-08-03T13:59:19.847Z,14.57
2018-08-03T14:01:58.870Z,12.27
2018-08-03T14:04:26.479Z,14.03
2018-08-03T14:06:54.210Z,14.57
2018-08-03T14:09:21.836Z,13.17
2018-08-03T14:11:49.483Z,12.77
2018-08-03T14:14:17.131Z,11.57
2018-08-03T14:16:44.755Z,12.70
2018-08-03T14:19:13.119Z,13.30
2018-08-03T14:21:40.952Z,11.93
2018-08-03T14:24:08.637Z,13.47
2018-08-03T14:26:36.291Z,12.90
2018-08-03T14:29:03.962Z,13.00
2018-08-03T14:31:31.743Z,17.13
2018-08-03T14:33:59.278Z,15.20
2018-08-03T14:36:26.888Z,13.20
2018-08-03T14:38:55.149Z,13.70
2018-08-03T14:41:23.768Z,14.17
2018-08-03T14:43:51.988Z,14.40
2018-08-03T14:46:19.608Z,13.40
2018-08-03T14:48:47.095Z,14.33
2018-08-03T14:51:14.720Z,14.27
2018-08-03T14:53:42.314Z,14.03
2018-08-03T14:56:09.927Z,14.10
2018-08-03T14:58:37.547Z,15.07
2018-08-03T15:01:05.252Z,15.13
2018-08-03T15:03:32.826Z,14.47
2018-08-03T15:06:00.448Z,14.80
2018-08-03T15:08:28.040Z,13.53
2018-08-03T15:10:55.686Z,13.43
2018-08-03T15:13:23.903Z,13.83
2018-08-03T15:15:51.505Z,14.07
2018-08-03T15:18:19.131Z,15.07
2018-08-03T15:20:47.571Z,14.40
2018-08-03T15:23:15.198Z,13.77
2018-08-03T15:25:43.478Z,13.90
2018-08-03T15:28:11.051Z,14.03
2018-08-03T15:30:38.643Z,14.93
2018-08-03T15:33:06.510Z,14.47
2018-08-03T15:35:34.087Z,14.80
2018-08-03T15:38:01.704Z,14.33
2018-08-03T15:40:29.325Z,14.23
2018-08-03T15:42:56.902Z,13.77
2018-08-03T15:45:24.527Z,13.40
2018-08-03T15:47:52.196Z,13.43
2018-08-03T15:50:20.675Z,14.17
2018-08-03T15:52:48.376Z,14.47
2018-08-03T15:55:15.930Z,14.40
2018-08-03T15:57:43.532Z,14.13
2018-08-03T16:00:11.135Z,14.27
2018-08-03T16:02:39.537Z,15.30
2018-08-03T16:05:07.893Z,14.80
2018-08-03T16:07:35.503Z,14.50
2018-08-03T16:10:04.648Z,14.33
2018-08-03T16:12:32.270Z,14.37
2018-08-03T16:14:59.825Z,13.67
2018-08-03T16:17:27.429Z,14.27
2018-08-03T16:19:55.049Z,14.83
2018-08-03T16:22:22.693Z,14.03
2018-08-03T16:24:50.333Z,14.97
2018-08-03T16:27:18.004Z,15.47
2018-08-03T16:29:45.632Z,13.97
2018-08-03T16:32:13.344Z,14.90
2018-08-03T16:34:40.954Z,15.17
2018-08-03T16:37:08.585Z,13.93
2018-08-03T16:39:36.207Z,14.40
2018-08-03T16:42:03.826Z,14.43
2018-08-03T16:44:31.455Z,12.90
2018-08-03T16:46:59.555Z,13.60
2018-08-03T16:49:27.185Z,14.80
2018-08-03T16:51:54.773Z,13.57
2018-08-03T16:54:22.406Z,14.23
2018-08-03T16:56:51.005Z,14.73
2018-08-03T16:59:18.623Z,13.43
2018-08-03T17:01:46.275Z,13.87
2018-08-03T17:04:13.880Z,14.10
2018-08-03T17:06:41.491Z,13.03
2018-08-03T17:09:09.756Z,13.00
2018-08-03T17:11:37.383Z,15.27
2018-08-03T17:14:05.147Z,14.90
2018-08-03T17:16:32.812Z,14.50
2018-08-03T17:19:00.382Z,13.90
2018-08-03T17:21:27.977Z,13.53
2018-08-03T17:23:55.590Z,14.70
2018-08-03T17:26:23.146Z,14.77
2018-08-03T17:28:51.480Z,13.83
2018-08-03T17:31:19.128Z,13.97
2018-08-03T17:33:48.577Z,14.90
2018-08-03T17:36:16.188Z,13.37
2018-08-03T17:38:43.797Z,14.07
2018-08-03T17:41:11.444Z,14.30
2018-08-03T17:43:39.031Z,13.93
2018-08-03T17:46:06.706Z,13.03
2018-08-03T17:48:34.446Z,12.63
2018-08-03T17:51:02.103Z,14.30
2018-08-03T17:53:29.743Z,14.47
2018-08-03T17:55:57.504Z,13.00
2018-08-03T17:58:25.141Z,13.40
2018-08-03T18:00:52.756Z,12.10
2018-08-03T18:03:20.575Z,13.97
2018-08-03T18:05:49.192Z,12.87
2018-08-03T18:08:16.872Z,13.37
2018-08-03T18:10:44.493Z,13.23
2018-08-03T18:13:12.173Z,13.27
2018-08-03T18:15:39.742Z,12.90
2018-08-03T18:18:07.443Z,12.53
2018-08-03T18:20:35.077Z,12.43
2018-08-03T18:23:02.828Z,14.63
2018-08-03T18:25:30.507Z,12.47
2018-08-03T18:27:58.633Z,13.80
2018-08-03T18:30:26.230Z,12.77
2018-08-03T18:32:53.794Z,13.50
2018-08-03T18:35:21.392Z,12.70
2018-08-03T18:37:49.032Z,13.50
2018-08-03T18:40:16.682Z,13.90
2018-08-03T18:42:44.282Z,16.20
2018-08-03T18:45:11.988Z,13.30
2018-08-03T18:47:39.656Z,13.63
2018-08-03T18:50:07.376Z,12.77
2018-08-03T18:52:35.020Z,14.47
2018-08-03T18:55:02.715Z,13.00
2018-08-03T18:57:30.384Z,13.70
2018-08-03T18:59:58.965Z,15.17
2018-08-03T19:02:26.658Z,13.53
2018-08-03T19:04:54.301Z,15.60
2018-08-03T19:07:21.969Z,16.23
2018-08-03T19:09:49.571Z,15.93
2018-08-03T19:12:17.205Z,17.10
2018-08-03T19:14:44.857Z,16.53
2018-08-03T19:17:12.521Z,18.67
2018-08-03T19:19:40.148Z,16.90
2018-08-03T19:22:07.794Z,14.97
2018-08-03T19:24:35.448Z,14.33
2018-08-03T19:27:03.165Z,16.10
2018-08-03T19:29:30.818Z,16.07
2018-08-03T19:31:58.650Z,17.20
2018-08-03T19:34:27.139Z,16.80
2018-08-03T19:36:54.783Z,15.37
2018-08-03T19:39:22.430Z,15.77
2018-08-03T19:41:50.090Z,17.47
2018-08-03T19:44:17.716Z,17.23
2018-08-03T19:46:46.144Z,15.93
2018-08-03T19:49:13.848Z,16.03
2018-08-03T19:51:42.070Z,15.90
2018-08-03T19:54:09.683Z,15.70
2018-08-03T19:56:37.352Z,17.30
2018-08-03T19:59:05.136Z,17.93
2018-08-03T20:01:32.657Z,18.37
2018-08-03T20:04:00.344Z,17.83
2018-08-03T20:06:27.976Z,18.60
2018-08-03T20:08:56.139Z,19.63
2018-08-03T20:11:23.832Z,19.20
2018-08-03T20:13:51.542Z,20.90
2018-08-03T20:16:19.362Z,19.70
2018-08-03T20:18:46.990Z,19.50
2018-08-03T20:21:14.645Z,19.93
2018-08-03T20:23:42.368Z,20.43
2018-08-03T20:26:10.059Z,19.53
2018-08-03T20:28:37.628Z,19.90
2018-08-03T20:31:05.395Z,18.13
2018-08-03T20:33:33.053Z,18.20
2018-08-03T20:36:00.698Z,18.70
2018-08-03T20:38:28.287Z,18.87
2018-08-03T20:40:55.889Z,18.33
2018-08-03T20:43:23.492Z,17.70
2018-08-03T20:45:51.184Z,17.60
2018-08-03T20:48:19.453Z,17.23
2018-08-03T20:50:47.113Z,17.00
2018-08-03T20:53:16.432Z,18.57
2018-08-03T20:55:44.084Z,18.50
2018-08-03T20:58:11.723Z,18.80
2018-08-03T21:00:39.378Z,18.20
2018-08-03T21:03:06.997Z,17.37
2018-08-03T21:05:34.626Z,18.80
2018-08-03T21:08:02.282Z,17.33
2018-08-03T21:10:29.903Z,18.10
2018-08-03T21:12:57.522Z,18.30
2018-08-03T21:15:25.293Z,19.23
2018-08-03T21:17:52.905Z,17.90
2018-08-03T21:20:20.501Z,18.90
2018-08-03T21:22:48.255Z,19.53
2018-08-03T21:25:15.917Z,15.57
2018-08-03T21:27:43.652Z,17.53
2018-08-03T21:30:11.537Z,19.23
2018-08-03T21:32:39.132Z,17.83
2018-08-03T21:35:07.554Z,17.07
2018-08-03T21:37:35.583Z,18.07
2018-08-03T21:40:03.272Z,16.77
2018-08-03T21:42:30.996Z,17.97
2018-08-03T21:44:58.616Z,17.80
2018-08-03T21:47:26.294Z,17.30
2018-08-03T21:49:53.990Z,17.17
2018-08-03T21:52:21.652Z,18.33
2018-08-03T21:54:49.347Z,16.13
2018-08-03T21:57:17.450Z,17.00
2018-08-03T21:59:45.038Z,17.77
2018-08-03T22:02:12.660Z,18.27
2018-08-03T22:04:40.262Z,17.67
2018-08-03T22:07:07.886Z,17.37
2018-08-03T22:09:36.519Z,18.40
2018-08-03T22:12:05.210Z,17.73
2018-08-03T22:14:32.726Z,18.77
2018-08-03T22:17:00.280Z,18.67
2018-08-03T22:19:27.916Z,19.20
2018-08-03T22:21:55.527Z,19.73
2018-08-03T22:24:23.241Z,19.10
2018-08-03T22:26:50.829Z,19.50
2018-08-03T22:29:18.413Z,20.37
2018-08-03T22:31:46.006Z,20.77
2018-08-03T22:34:13.577Z,20.37
2018-08-03T22:36:41.707Z,18.20
2018-08-03T22:39:09.379Z,20.00
2018-08-03T22:41:36.956Z,19.93
2018-08-03T22:44:04.599Z,20.70
2018-08-03T22:46:32.156Z,21.63
2018-08-03T22:48:59.758Z,21.77
2018-08-03T22:51:27.369Z,22.50
2018-08-03T22:53:55.102Z,20.93
2018-08-03T22:56:22.609Z,20.73
2018-08-03T22:58:50.223Z,21.37
2018-08-03T23:01:17.817Z,21.47
2018-08-03T23:03:45.428Z,21.47
2018-08-03T23:06:13.074Z,19.73
2018-08-03T23:08:40.678Z,19.40
2018-08-03T23:11:08.285Z,20.33
2018-08-03T23:13:35.909Z,19.00
2018-08-03T23:16:03.656Z,20.80
2018-08-03T23:18:31.240Z,19.20
2018-08-03T23:20:58.800Z,20.20
2018-08-03T23:23:26.380Z,20.70
2018-08-03T23:25:53.998Z,19.60
2018-08-03T23:28:21.579Z,21.07
2018-08-03T23:30:49.185Z,20.77
2018-08-03T23:33:16.769Z,19.93
2018-08-03T23:35:44.377Z,20.00
2018-08-03T23:38:11.977Z,19.87
2018-08-03T23:40:39.604Z,20.43
2018-08-03T23:43:07.081Z,20.37
2018-08-03T23:45:34.677Z,20.17
2018-08-03T23:48:02.228Z,21.13
2018-08-03T23:50:29.814Z,19.80
2018-08-03T23:52:57.440Z,21.80
2018-08-03T23:55:25.011Z,21.33
2018-08-03T23:57:52.650Z,20.97
